Time;durP1;ratioP1;P1;durP2;ratioP2;P2;SDS_P1;SDS_P2;PMS_P1;PMS_P2;Temp;Humidity;BMP_temperature;BMP_pressure;BME280_temperature;BME280_humidity;BME280_pressure;Samples;Min_cycle;Max_cycle;Signal;HPM_P1;HPM_P2
2022/02/07 00:00:47;;;;;;;3.12;1.10;;;;;;;3.85;100.00;98281.43;3453427;83;98772;-83
2022/02/07 00:05:48;;;;;;;7.67;1.97;;;;;;;3.82;100.00;98271.30;3519970;82;98348;-83
2022/02/07 00:10:49;;;;;;;5.33;1.50;;;;;;;3.81;100.00;98280.63;3529069;82;98339;-83
2022/02/07 00:15:50;;;;;;;5.13;1.50;;;;;;;3.80;100.00;98279.08;3500455;82;98887;-83
2022/02/07 00:20:52;;;;;;;7.92;2.17;;;;;;;3.80;100.00;98282.37;3442618;83;98442;-82
2022/02/07 00:25:54;;;;;;;4.37;1.73;;;;;;;3.80;100.00;98273.64;3517597;82;98998;-84
2022/02/07 00:30:55;;;;;;;2.85;0.70;;;;;;;3.77;100.00;98273.03;3492405;83;98000;-84
2022/02/07 00:35:56;;;;;;;4.07;1.00;;;;;;;3.72;100.00;98265.24;3521624;82;98298;-85
2022/02/07 00:41:02;;;;;;;5.47;1.40;;;;;;;3.71;100.00;98253.41;3503663;82;98788;-84
2022/02/07 00:46:12;;;;;;;6.73;2.10;;;;;;;3.72;100.00;98253.60;3539389;81;98815;-85
2022/02/07 00:51:10;;;;;;;4.90;2.05;;;;;;;3.76;100.00;98246.23;3541441;81;98986;-85
2022/02/07 00:56:11;;;;;;;4.93;1.40;;;;;;;3.78;100.00;98239.83;3538699;81;98544;-85
2022/02/07 01:01:13;;;;;;;4.63;1.30;;;;;;;3.82;100.00;98236.53;3513956;82;98993;-85
2022/02/07 01:06:13;;;;;;;4.53;1.30;;;;;;;3.82;100.00;98236.53;3535920;81;34839;-85
2022/02/07 01:11:21;;;;;;;8.20;2.27;;;;;;;3.85;100.00;98237.11;3529348;82;98326;-85
2022/02/07 01:16:45;;;;;;;6.90;2.50;;;;;;;3.85;100.00;98235.18;3540618;82;99058;-82
2022/02/07 01:58:36;;;;;;;3.85;1.40;;;;;;;3.84;100.00;98226.04;3529619;82;98820;-84
2022/02/07 02:03:37;;;;;;;2.73;1.07;;;;;;;3.80;100.00;98221.95;3523085;82;98964;-83
2022/02/07 02:08:38;;;;;;;1.80;0.80;;;;;;;3.75;100.00;98218.81;3467575;83;98471;-84
2022/02/07 02:35:17;;;;;;;1.60;0.97;;;;;;;3.58;100.00;98251.61;3529033;82;98679;-84
2022/02/07 02:50:35;;;;;;;2.20;1.00;;;;;;;3.53;100.00;98264.22;3522399;81;98891;-84
2022/02/07 02:55:41;;;;;;;2.53;1.07;;;;;;;3.54;100.00;98278.58;3498450;82;98894;-84
2022/02/07 03:00:44;;;;;;;2.23;1.20;;;;;;;3.53;100.00;98294.13;3513075;82;98364;-84
2022/02/07 03:05:47;;;;;;;0.72;0.72;;;;;;;3.53;100.00;98306.93;3494054;82;98890;-82
2022/02/07 03:21:11;;;;;;;0.75;0.20;;;;;;;3.41;100.00;98346.12;3494107;82;98571;-83
2022/02/07 03:26:14;;;;;;;0.63;0.10;;;;;;;3.30;100.00;98356.71;3524669;82;98462;-83
2022/02/07 03:31:20;;;;;;;0.80;0.30;;;;;;;3.17;100.00;98366.34;3520089;82;98509;-83
2022/02/07 03:36:20;;;;;;;0.20;0.20;;;;;;;3.00;100.00;98372.43;3526268;82;25837;-83
2022/02/07 03:41:22;;;;;;;1.73;0.33;;;;;;;2.92;100.00;98387.89;3512785;82;98591;-83
2022/02/07 03:46:23;;;;;;;1.13;0.40;;;;;;;2.82;100.00;98401.36;3529030;82;98967;-84
2022/02/07 03:51:24;;;;;;;2.30;0.60;;;;;;;2.79;100.00;98412.39;3519425;82;98438;-83
2022/02/07 03:56:25;;;;;;;3.40;0.60;;;;;;;2.75;100.00;98422.47;3526503;82;98422;-83
2022/02/07 04:01:27;;;;;;;0.80;0.70;;;;;;;2.72;100.00;98447.64;3517851;82;98568;-83
2022/02/07 04:06:28;;;;;;;0.53;0.30;;;;;;;2.71;100.00;98450.16;3529114;82;34895;-84
2022/02/07 04:11:38;;;;;;;2.30;0.60;;;;;;;2.69;100.00;98471.45;3517275;82;98349;-84
2022/02/07 04:16:38;;;;;;;2.10;0.80;;;;;;;2.69;100.00;98484.27;3528870;82;98695;-84
2022/02/07 04:21:42;;;;;;;2.00;0.62;;;;;;;2.65;100.00;98496.45;3515297;82;98431;-83
2022/02/07 04:26:42;;;;;;;1.70;0.87;;;;;;;2.64;100.00;98515.83;3510845;82;98534;-85
2022/02/07 04:31:43;;;;;;;2.58;0.62;;;;;;;2.63;100.00;98531.33;3518495;82;98487;-85
2022/02/07 04:36:46;;;;;;;0.80;0.60;;;;;;;2.63;100.00;98550.92;3525329;82;98120;-83
2022/02/07 04:41:46;;;;;;;0.67;0.57;;;;;;;2.61;100.00;98565.43;3522315;82;98777;-82
2022/02/07 04:47:44;;;;;;;1.40;0.70;;;;;;;2.62;100.00;98581.95;3504238;81;102789;-84
2022/02/07 04:52:08;;;;;;;1.17;0.53;;;;;;;2.61;100.00;98595.30;3504233;82;99038;-83
2022/02/07 04:57:27;;;;;;;1.32;0.55;;;;;;;2.60;100.00;98607.31;3513430;82;98617;-84
2022/02/07 05:18:02;;;;;;;4.03;1.10;;;;;;;2.55;100.00;98661.38;3503483;82;98394;-84
2022/02/07 05:23:03;;;;;;;2.47;0.77;;;;;;;2.55;100.00;98669.52;3516242;82;98452;-83
2022/02/07 05:28:04;;;;;;;1.37;0.50;;;;;;;2.53;100.00;98684.05;3520582;82;98527;-85
2022/02/07 05:33:06;;;;;;;1.55;0.60;;;;;;;2.51;100.00;98695.06;3470164;82;98879;-83
2022/02/07 05:38:09;;;;;;;2.80;0.97;;;;;;;2.50;100.00;98702.97;3467830;83;98635;-83
2022/02/07 05:43:13;;;;;;;2.93;1.00;;;;;;;2.50;100.00;98729.56;3516316;82;26466;-83
2022/02/07 05:48:13;;;;;;;3.60;1.20;;;;;;;2.50;100.00;98739.62;3508595;82;98491;-83
2022/02/07 05:53:14;;;;;;;2.57;0.90;;;;;;;2.48;100.00;98759.02;3520351;82;98801;-84
2022/02/07 05:58:15;;;;;;;1.77;0.70;;;;;;;2.45;100.00;98774.66;3520298;80;98823;-85
2022/02/07 06:03:15;;;;;;;2.90;1.00;;;;;;;2.44;100.00;98788.59;3531475;82;98837;-84
2022/02/07 06:08:17;;;;;;;12.88;3.95;;;;;;;2.40;100.00;98814.32;3525356;81;98477;-82
2022/02/07 06:13:21;;;;;;;21.40;7.03;;;;;;;2.33;100.00;98829.70;3534502;82;98925;-82
2022/02/07 06:18:22;;;;;;;36.40;13.93;;;;;;;2.19;100.00;98845.74;3482996;82;98682;-83
2022/02/07 06:23:22;;;;;;;19.63;8.00;;;;;;;2.06;100.00;98867.38;3538148;82;98983;-83
2022/02/07 06:28:24;;;;;;;10.07;4.33;;;;;;;1.96;100.00;98870.66;3529582;82;99207;-83
2022/02/07 06:33:25;;;;;;;2.87;1.60;;;;;;;1.89;100.00;98895.73;3540801;82;98999;-83
2022/02/07 06:38:26;;;;;;;5.17;1.97;;;;;;;1.83;100.00;98909.37;3529518;81;98724;-83
2022/02/07 06:43:27;;;;;;;33.13;13.87;;;;;;;1.76;100.00;98926.83;3545996;82;98535;-83
2022/02/07 06:48:28;;;;;;;45.85;21.60;;;;;;;1.73;100.00;98938.40;3547526;82;98803;-82
2022/02/07 06:53:29;;;;;;;23.20;10.97;;;;;;;1.69;100.00;98952.44;3555131;81;98648;-83
2022/02/07 06:58:31;;;;;;;14.57;7.20;;;;;;;1.71;100.00;98975.14;3546390;82;99068;-84
2022/02/07 07:03:34;;;;;;;5.70;2.23;;;;;;;1.71;100.00;98990.83;3529799;82;99348;-84
2022/02/07 07:08:39;;;;;;;5.17;1.63;;;;;;;1.70;100.00;99001.45;3541884;82;98888;-84
2022/02/07 07:13:47;;;;;;;2.87;1.60;;;;;;;1.67;100.00;99022.52;3540718;81;99101;-83
2022/02/07 07:18:40;;;;;;;4.87;1.77;;;;;;;1.66;100.00;99028.28;3505134;82;98638;-82
2022/02/07 07:23:42;;;;;;;5.43;1.37;;;;;;;1.67;100.00;99040.14;3590463;79;98835;-82
2022/02/07 07:28:43;;;;;;;5.20;1.60;;;;;;;1.68;100.00;99047.69;3516803;82;98229;-83
2022/02/07 07:33:51;;;;;;;8.03;2.40;;;;;;;1.72;100.00;99072.42;3522650;82;98823;-87
2022/02/07 07:38:49;;;;;;;4.33;1.47;;;;;;;1.76;100.00;99090.89;3521115;82;98624;-84
2022/02/07 07:43:55;;;;;;;2.53;1.20;;;;;;;1.77;100.00;99107.41;3519105;82;98518;-84
2022/02/07 07:49:04;;;;;;;5.40;2.40;;;;;;;1.76;100.00;99105.81;3511722;82;98053;-85
2022/02/07 08:04:34;;;;;;;4.97;1.97;;;;;;;1.81;100.00;99160.38;3457140;83;99215;-82
2022/02/07 08:10:00;;;;;;;4.78;1.30;;;;;;;1.83;100.00;99175.72;3537677;81;98996;-82
2022/02/07 08:14:46;;;;;;;13.90;4.53;;;;;;;1.85;100.00;99196.49;3508711;82;99142;-83
2022/02/07 08:19:48;;;;;;;10.13;4.33;;;;;;;1.89;100.00;99202.25;3520113;82;99080;-83
2022/02/07 08:25:00;;;;;;;6.23;2.17;;;;;;;1.98;100.00;99215.05;3533936;82;25956;-83
2022/02/07 08:29:58;;;;;;;11.80;3.65;;;;;;;2.06;100.00;99228.23;3530374;82;98830;-83
2022/02/07 08:35:01;;;;;;;11.80;5.97;;;;;;;2.18;100.00;99243.10;3570725;81;98993;-84
2022/02/07 08:40:02;;;;;;;9.80;2.80;;;;;;;2.26;100.00;99255.70;3489883;82;99095;-84
2022/02/07 08:45:05;;;;;;;10.03;2.57;;;;;;;2.39;100.00;99265.31;3508897;82;98559;-84
2022/02/07 08:50:07;;;;;;;8.83;2.40;;;;;;;2.50;100.00;99282.66;3505759;82;99184;-84
2022/02/07 08:55:13;;;;;;;7.47;1.97;;;;;;;2.62;100.00;99289.38;3523274;82;26805;-84
2022/02/07 09:00:23;;;;;;;12.57;4.60;;;;;;;2.77;100.00;99296.69;3565891;81;98446;-84
2022/02/07 09:10:27;;;;;;;14.33;4.37;;;;;;;2.96;100.00;99318.51;3510805;82;98858;-85
2022/02/07 09:20:41;;;;;;;24.83;9.87;;;;;;;3.11;100.00;99327.20;3511334;82;99353;-86
2022/02/07 09:25:42;;;;;;;9.13;2.60;;;;;;;3.20;100.00;99339.45;3519320;82;99101;-85
2022/02/07 09:30:43;;;;;;;10.67;2.20;;;;;;;3.25;100.00;99348.70;3504222;82;98625;-88
2022/02/07 09:35:51;;;;;;;7.03;1.80;;;;;;;3.29;100.00;99354.22;3577780;81;98414;-86
2022/02/07 09:40:57;;;;;;;6.60;1.70;;;;;;;3.34;100.00;99355.30;3577869;80;98778;-87
2022/02/07 09:46:12;;;;;;;7.23;1.57;;;;;;;3.38;100.00;99376.56;3571328;80;98901;-85
2022/02/07 09:51:09;;;;;;;12.67;1.93;;;;;;;3.44;100.00;99384.08;3569826;80;99006;-86
2022/02/07 09:56:12;;;;;;;6.20;1.80;;;;;;;3.55;100.00;99394.62;3577717;80;98695;-86
2022/02/07 10:01:23;;;;;;;10.50;2.15;;;;;;;3.62;100.00;99409.76;3579253;81;98474;-85
2022/02/07 10:11:51;;;;;;;10.95;3.72;;;;;;;3.72;100.00;99420.65;3551990;81;98825;-85
2022/02/07 10:17:09;;;;;;;7.40;2.13;;;;;;;3.77;100.00;99421.73;3548887;82;98947;-85
2022/02/07 10:48:50;;;;;;;7.97;1.73;;;;;;;4.09;100.00;99462.08;3529945;82;98669;-85
2022/02/07 10:54:00;;;;;;;7.17;1.50;;;;;;;4.15;100.00;99470.18;3536531;82;98743;-85
2022/02/07 10:59:08;;;;;;;7.63;1.80;;;;;;;4.25;100.00;99481.88;3531183;82;98930;-84
2022/02/07 11:04:16;;;;;;;13.43;1.73;;;;;;;4.27;100.00;99486.38;3528114;82;98836;-84
2022/02/07 11:10:17;;;;;;;8.18;1.60;;;;;;;4.36;100.00;99488.33;3526771;82;99268;-85
2022/02/07 11:30:00;;;;;;;7.20;1.60;;;;;;;4.56;100.00;99514.43;3512480;82;98820;-86
2022/02/07 11:35:25;;;;;;;7.27;1.57;;;;;;;4.63;100.00;99527.41;3498979;82;98874;-85
2022/02/07 11:40:34;;;;;;;7.28;2.62;;;;;;;4.65;100.00;99531.92;3495086;82;98785;-86
2022/02/07 11:46:08;;;;;;;8.70;1.62;;;;;;;4.72;100.00;99541.03;3524150;82;98532;-86
2022/02/07 11:51:24;;;;;;;9.90;1.98;;;;;;;4.77;100.00;99553.01;3524523;82;98944;-84
2022/02/07 11:56:46;;;;;;;5.33;1.77;;;;;;;4.80;100.00;99562.41;3534160;82;98930;-85
2022/02/07 12:02:02;;;;;;;13.77;2.70;;;;;;;4.85;100.00;99559.39;3538509;82;98876;-85
2022/02/07 12:07:18;;;;;;;7.80;1.77;;;;;;;4.86;100.00;99582.77;3535953;82;98963;-86
2022/02/07 12:12:33;;;;;;;8.27;2.60;;;;;;;4.86;100.00;99587.63;3546744;82;98150;-85
2022/02/07 12:17:56;;;;;;;10.10;3.50;;;;;;;4.79;100.00;99604.41;3537668;82;98677;-84
2022/02/07 12:23:08;;;;;;;15.80;4.03;;;;;;;4.72;100.00;99622.79;3526148;82;98942;-82
2022/02/07 12:28:17;;;;;;;8.70;3.23;;;;;;;4.63;100.00;99641.27;3522097;82;98792;-85
2022/02/07 12:33:17;;;;;;;11.63;3.50;;;;;;;4.43;100.00;99645.69;3541025;82;98531;-86
2022/02/07 12:38:18;;;;;;;9.57;3.57;;;;;;;4.42;100.00;99657.73;3517884;82;99057;-85
2022/02/07 12:43:20;;;;;;;12.30;3.37;;;;;;;4.40;100.00;99665.45;3536972;82;35357;-86
2022/02/07 12:48:28;;;;;;;11.77;2.60;;;;;;;4.39;100.00;99671.48;3521683;82;98796;-85
2022/02/07 12:53:31;;;;;;;8.87;1.87;;;;;;;4.39;100.00;99677.49;3530710;82;98580;-83
2022/02/07 12:58:42;;;;;;;7.83;2.30;;;;;;;4.38;100.00;99698.52;3494699;82;98631;-84
2022/02/07 13:03:53;;;;;;;6.65;1.90;;;;;;;4.37;100.00;99715.20;3537241;82;98573;-85
2022/02/07 13:08:56;;;;;;;7.20;2.02;;;;;;;4.38;100.00;99718.14;3541760;82;99192;-84
2022/02/07 13:13:59;;;;;;;8.20;2.20;;;;;;;4.40;100.00;99728.11;3545988;82;98474;-84
2022/02/07 13:19:14;;;;;;;9.00;2.70;;;;;;;4.41;100.00;99735.93;3540320;82;98485;-84
2022/02/07 13:24:20;;;;;;;10.47;2.40;;;;;;;4.45;100.00;99740.09;3545514;82;98707;-84
2022/02/07 13:29:25;;;;;;;10.58;2.70;;;;;;;4.48;100.00;99761.97;3532859;82;98956;-86
2022/02/07 13:34:29;;;;;;;14.25;2.70;;;;;;;4.52;100.00;99766.14;3539575;82;98738;-84
2022/02/07 13:39:32;;;;;;;13.27;3.87;;;;;;;4.54;100.00;99778.27;3539282;82;99101;-87
2022/02/07 13:44:44;;;;;;;12.20;4.22;;;;;;;4.59;100.00;99783.45;3540061;82;99160;-88
2022/02/07 13:50:08;;;;;;;8.65;2.58;;;;;;;4.63;100.00;99787.06;3539237;81;99107;-86
2022/02/07 13:55:23;;;;;;;9.35;2.08;;;;;;;4.67;100.00;99795.33;3549945;82;29437;-84
2022/02/07 14:00:34;;;;;;;13.57;2.67;;;;;;;4.71;100.00;99820.73;3534692;82;98540;-85
2022/02/07 14:05:39;;;;;;;13.40;3.63;;;;;;;4.72;99.95;99817.67;3512118;82;98928;-86
2022/02/07 14:10:43;;;;;;;15.87;2.83;;;;;;;4.74;99.20;99831.72;3530646;82;98474;-84
2022/02/07 14:15:46;;;;;;;10.68;3.22;;;;;;;4.77;98.99;99837.84;3538633;82;99074;-85
2022/02/07 14:20:49;;;;;;;13.03;3.37;;;;;;;4.83;98.65;99839.72;3531730;81;99015;-85
2022/02/07 14:25:59;;;;;;;15.47;3.10;;;;;;;4.84;98.51;99861.18;3543658;82;98445;-85
2022/02/07 14:30:55;;;;;;;14.18;3.30;;;;;;;4.84;98.19;99861.73;3504902;82;98450;-86
2022/02/07 14:35:57;;;;;;;12.50;4.00;;;;;;;4.83;97.48;99881.41;3545539;82;98794;-86
2022/02/07 14:40:58;;;;;;;22.43;8.63;;;;;;;4.80;97.36;99891.64;3531976;82;98577;-86
2022/02/07 14:51:06;;;;;;;21.03;3.90;;;;;;;4.76;97.41;99918.60;3531824;81;99058;-85
2022/02/07 14:56:08;;;;;;;12.60;2.43;;;;;;;4.72;97.29;99936.23;3538061;82;99073;-86
2022/02/07 15:01:10;;;;;;;13.43;3.57;;;;;;;4.71;97.32;99949.64;3529038;82;98271;-85
2022/02/07 15:06:11;;;;;;;14.33;3.77;;;;;;;4.69;96.70;99949.18;3537774;82;98286;-86
2022/02/07 15:11:13;;;;;;;16.90;3.83;;;;;;;4.64;95.96;99956.25;3531179;82;98607;-85
2022/02/07 15:16:14;;;;;;;16.77;3.37;;;;;;;4.61;95.65;99975.23;3531165;82;99018;-86
2022/02/07 15:21:17;;;;;;;14.00;4.07;;;;;;;4.55;95.58;99978.80;3525991;82;98837;-85
2022/02/07 15:26:22;;;;;;;37.80;15.17;;;;;;;4.53;95.78;99977.55;3531389;82;97823;-85
2022/02/07 15:31:23;;;;;;;17.90;5.17;;;;;;;4.48;95.90;99989.48;3530926;82;98760;-85
2022/02/07 15:36:25;;;;;;;14.03;3.50;;;;;;;4.45;96.07;99994.27;3535413;82;98767;-87
2022/02/07 15:41:26;;;;;;;17.98;4.15;;;;;;;4.43;96.29;100001.20;3524204;82;98901;-86
2022/02/07 15:46:30;;;;;;;16.93;4.87;;;;;;;4.40;96.43;100014.14;3532427;82;99038;-86
2022/02/07 15:51:31;;;;;;;17.10;4.07;;;;;;;4.40;96.61;100026.41;3524881;82;99138;-86
2022/02/07 15:56:32;;;;;;;18.13;5.50;;;;;;;4.35;96.29;100037.54;3533700;82;99185;-86
2022/02/07 16:01:33;;;;;;;17.70;5.60;;;;;;;4.32;96.25;100047.78;3528045;82;99065;-86
2022/02/07 16:06:34;;;;;;;27.40;10.10;;;;;;;4.29;96.52;100080.59;3542617;82;34842;-86
2022/02/07 16:11:37;;;;;;;19.93;5.33;;;;;;;4.23;96.91;100098.30;3537267;81;99001;-86
2022/02/07 16:16:47;;;;;;;17.90;4.40;;;;;;;4.06;96.71;100099.91;3518686;82;99157;-86
2022/02/07 16:21:48;;;;;;;16.80;4.25;;;;;;;3.89;97.01;100118.40;3539687;82;99129;-84
2022/02/07 16:26:53;;;;;;;16.60;5.03;;;;;;;3.74;97.44;100137.55;3524739;82;98925;-84
2022/02/07 16:31:54;;;;;;;15.98;4.50;;;;;;;3.62;97.77;100152.52;3539401;82;99160;-86
2022/02/07 16:36:55;;;;;;;19.47;5.93;;;;;;;3.55;98.16;100170.52;3503680;82;98906;-87
2022/02/07 16:41:56;;;;;;;19.20;5.07;;;;;;;3.48;98.50;100175.14;3538889;82;98549;-85
2022/02/07 16:46:57;;;;;;;21.93;5.53;;;;;;;3.44;98.85;100181.59;3534385;82;99040;-86
2022/02/07 16:52:00;;;;;;;19.80;5.40;;;;;;;3.41;99.08;100181.70;3539601;82;98769;-86
2022/02/07 16:57:01;;;;;;;18.40;5.90;;;;;;;3.36;99.37;100194.70;3529770;82;98727;-86
2022/02/07 17:02:05;;;;;;;20.50;5.70;;;;;;;3.34;99.67;100196.97;3525899;82;99130;-85
2022/02/07 17:07:05;;;;;;;23.07;6.15;;;;;;;3.33;100.00;100201.59;3532413;81;98807;-84
2022/02/07 17:12:07;;;;;;;19.90;5.77;;;;;;;3.34;100.00;100217.36;3534499;82;99114;-84
2022/02/07 17:17:11;;;;;;;21.12;5.92;;;;;;;3.35;99.74;100229.83;3525931;82;99061;-84
2022/02/07 17:22:13;;;;;;;18.37;4.73;;;;;;;3.35;99.25;100233.36;3527402;81;99176;-85
2022/02/07 17:27:14;;;;;;;24.98;6.35;;;;;;;3.36;98.78;100240.38;3528818;81;98717;-83
2022/02/07 17:32:15;;;;;;;17.83;5.10;;;;;;;3.38;98.38;100260.45;3540421;81;98733;-83
2022/02/07 17:37:18;;;;;;;25.13;4.87;;;;;;;3.39;97.86;100269.62;3532161;82;98633;-83
2022/02/07 17:42:26;;;;;;;22.87;5.43;;;;;;;3.41;97.75;100283.70;3534767;82;98329;-83
2022/02/07 17:47:25;;;;;;;21.50;6.03;;;;;;;3.43;97.40;100285.52;3548952;82;99033;-84
2022/02/07 17:52:28;;;;;;;22.57;6.50;;;;;;;3.45;96.79;100305.59;3473194;82;99240;-84
2022/02/07 17:57:28;;;;;;;31.00;7.77;;;;;;;3.46;96.71;100309.34;3511127;82;98904;-83
2022/02/07 18:02:29;;;;;;;25.50;8.07;;;;;;;3.49;96.80;100329.06;3543262;82;98733;-83
2022/02/07 18:07:30;;;;;;;23.13;6.80;;;;;;;3.52;96.05;100318.90;3524729;82;98845;-83
2022/02/07 18:12:31;;;;;;;24.43;6.07;;;;;;;3.54;96.05;100330.23;3545137;82;98307;-85
2022/02/07 18:17:33;;;;;;;24.70;6.53;;;;;;;3.55;95.63;100337.27;3496074;81;98709;-84
2022/02/07 18:22:44;;;;;;;26.23;5.37;;;;;;;3.57;94.56;100336.38;3533888;82;98936;-83
2022/02/07 18:27:46;;;;;;;20.50;4.87;;;;;;;3.61;95.72;100356.33;3522148;82;98967;-84
2022/02/07 18:32:48;;;;;;;27.83;4.93;;;;;;;3.63;95.92;100362.26;3536828;82;98723;-83
2022/02/07 18:37:55;;;;;;;27.10;7.13;;;;;;;3.65;95.82;100380.41;3531842;82;98871;-83
2022/02/07 18:42:55;;;;;;;21.83;5.50;;;;;;;3.68;95.71;100380.30;3533254;82;28871;-83
2022/02/07 18:47:59;;;;;;;22.67;5.13;;;;;;;3.69;95.87;100373.17;3538981;82;98802;-83
2022/02/07 18:53:00;;;;;;;18.97;4.53;;;;;;;3.70;95.97;100364.43;3547246;82;98533;-85
2022/02/07 18:58:10;;;;;;;21.17;4.73;;;;;;;3.70;95.75;100367.95;3528749;81;98990;-85
2022/02/07 19:03:15;;;;;;;23.43;5.33;;;;;;;3.70;95.75;100367.95;3506505;82;99104;-81
2022/02/07 19:08:14;;;;;;;32.50;6.58;;;;;;;3.69;95.82;100373.17;3537777;82;98718;-85
2022/02/07 19:13:15;;;;;;;21.33;4.97;;;;;;;3.70;95.97;100382.12;3554450;82;26292;-84
2022/02/07 19:18:18;;;;;;;24.23;5.23;;;;;;;3.70;96.15;100374.77;3528118;82;98904;-85
2022/02/07 19:23:25;;;;;;;21.67;4.40;;;;;;;3.67;96.03;100377.36;3547102;82;98562;-85
2022/02/07 19:28:26;;;;;;;21.57;5.15;;;;;;;3.63;95.95;100394.11;3531545;82;98661;-84
2022/02/07 19:33:29;;;;;;;31.27;7.77;;;;;;;3.63;95.96;100402.27;3546074;82;98706;-84
2022/02/07 19:38:33;;;;;;;27.20;5.47;;;;;;;3.63;95.55;100414.52;3532288;82;98827;-85
2022/02/07 19:43:36;;;;;;;23.47;4.90;;;;;;;3.63;95.67;100426.21;3541097;82;98603;-84
2022/02/07 19:48:37;;;;;;;25.77;5.80;;;;;;;3.60;95.49;100422.00;3539640;82;98835;-84
2022/02/07 19:53:39;;;;;;;26.23;6.70;;;;;;;3.55;95.75;100436.57;3547112;82;98539;-85
2022/02/07 19:58:40;;;;;;;34.83;5.23;;;;;;;3.49;95.29;100451.50;3542518;82;98343;-85
2022/02/07 20:03:42;;;;;;;25.70;5.13;;;;;;;3.45;95.22;100460.66;3540207;82;98733;-86
2022/02/07 20:08:48;;;;;;;31.00;9.57;;;;;;;3.44;95.50;100476.75;3525754;81;99494;-87
2022/02/07 20:13:49;;;;;;;21.30;5.17;;;;;;;3.44;95.40;100472.09;3509533;82;98743;-87
2022/02/07 20:18:51;;;;;;;24.43;6.33;;;;;;;3.45;95.47;100472.90;3506226;82;98729;-87
2022/02/07 20:23:52;;;;;;;21.93;4.97;;;;;;;3.44;95.13;100475.39;3537082;82;98766;-86
2022/02/07 20:28:55;;;;;;;26.07;5.00;;;;;;;3.45;94.98;100486.50;3509198;82;98842;-86
2022/02/07 20:33:58;;;;;;;18.07;4.30;;;;;;;3.45;94.61;100470.95;3536952;80;98700;-86
2022/02/07 20:38:59;;;;;;;20.00;4.03;;;;;;;3.47;94.89;100493.77;3524847;82;98775;-86
2022/02/07 20:44:00;;;;;;;19.00;4.80;;;;;;;3.47;94.59;100496.48;3533597;82;98481;-86
2022/02/07 20:49:08;;;;;;;20.63;4.80;;;;;;;3.48;94.84;100506.23;3530312;82;98635;-86
2022/02/07 20:54:08;;;;;;;24.87;4.70;;;;;;;3.47;94.84;100511.44;3541434;82;98468;-86
2022/02/07 20:59:09;;;;;;;36.80;5.80;;;;;;;3.47;94.97;100513.61;3532113;82;98867;-86
2022/02/07 21:04:13;;;;;;;20.37;4.07;;;;;;;3.48;94.87;100515.75;3533812;82;99439;-88
2022/02/07 21:09:16;;;;;;;22.37;4.40;;;;;;;3.52;94.75;100520.78;3535681;82;98797;-87
2022/02/07 21:14:22;;;;;;;24.10;3.33;;;;;;;3.52;94.79;100521.59;3540708;82;98691;-86
2022/02/07 21:19:28;;;;;;;24.60;4.50;;;;;;;3.47;94.55;100535.37;3534775;82;98872;-87
2022/02/07 21:24:28;;;;;;;19.50;3.77;;;;;;;3.43;94.65;100551.30;3536833;82;98374;-86
2022/02/07 21:29:29;;;;;;;22.43;4.37;;;;;;;3.36;94.61;100553.19;3524678;82;99057;-87
2022/02/07 21:34:30;;;;;;;22.73;4.60;;;;;;;3.30;94.89;100553.69;3545619;81;98667;-86
2022/02/07 21:39:32;;;;;;;17.60;3.30;;;;;;;3.24;94.93;100566.67;3532579;82;98857;-86
2022/02/07 21:44:36;;;;;;;24.30;5.72;;;;;;;3.18;94.96;100580.19;3541103;82;99086;-88
2022/02/07 21:49:37;;;;;;;21.02;3.95;;;;;;;3.14;95.00;100585.25;3524429;82;99149;-87
2022/02/07 21:54:38;;;;;;;20.53;3.67;;;;;;;3.08;95.18;100598.77;3536127;82;34857;-87
2022/02/07 21:59:40;;;;;;;17.77;3.17;;;;;;;3.02;95.26;100598.16;3528991;82;98662;-86
2022/02/07 22:04:43;;;;;;;22.47;4.50;;;;;;;2.98;95.53;100618.14;3536112;82;98787;-87
2022/02/07 22:09:44;;;;;;;21.73;3.83;;;;;;;2.93;95.51;100625.91;3532910;82;98789;-87
2022/02/07 22:15:19;;;;;;;21.97;3.93;;;;;;;2.89;95.56;100641.25;3535899;82;98976;-88
2022/02/07 22:19:54;;;;;;;20.90;4.20;;;;;;;2.86;95.67;100641.91;3521906;82;98985;-88
2022/02/07 22:24:59;;;;;;;16.77;3.33;;;;;;;2.89;95.75;100652.70;3531858;82;35236;-87
2022/02/07 22:30:05;;;;;;;24.23;3.35;;;;;;;2.88;95.71;100669.56;3525886;82;98763;-87
2022/02/07 22:35:13;;;;;;;14.50;3.47;;;;;;;2.91;96.00;100673.56;3529003;82;98499;-87
2022/02/07 22:40:10;;;;;;;23.40;4.53;;;;;;;2.95;96.14;100677.24;3528711;82;98975;-86
2022/02/07 22:45:12;;;;;;;22.77;4.57;;;;;;;3.00;96.01;100690.09;3532621;82;99110;-87
2022/02/07 22:50:14;;;;;;;26.00;6.00;;;;;;;3.06;95.89;100695.61;3531842;82;99049;-88
2022/02/07 22:55:16;;;;;;;18.73;3.30;;;;;;;3.07;95.98;100701.86;3537089;82;34889;-86
2022/02/07 23:00:23;;;;;;;22.70;3.70;;;;;;;3.10;95.90;100716.97;3509052;82;98586;-87
2022/02/07 23:05:31;;;;;;;20.67;4.83;;;;;;;3.11;95.69;100717.20;3534768;82;98507;-86
2022/02/07 23:15:55;;;;;;;22.05;4.40;;;;;;;3.14;96.13;100742.96;3492562;82;98728;-82
2022/02/07 23:31:29;;;;;;;24.07;4.23;;;;;;;3.19;96.28;100756.40;3536484;82;98594;-87
2022/02/07 23:36:15;;;;;;;25.08;4.20;;;;;;;3.22;96.20;100765.30;3535637;82;98481;-86
2022/02/07 23:46:19;;;;;;;24.63;4.20;;;;;;;3.25;95.90;100766.81;3526945;82;99023;-86
2022/02/07 23:51:25;;;;;;;20.15;3.90;;;;;;;3.27;96.04;100778.73;3530834;82;98732;-87
2022/02/07 23:56:40;;;;;;;23.53;4.30;;;;;;;3.27;95.93;100789.04;3532647;82;98684;-86
